Terminal Aerodrome Forecast
Issued by NWS

Home | Current Version | Previous Version | Text Only | Print | Product List | Glossary Off
Versions: 1 2 3 4 5 6 7 8 9 10 11 12 13 14 15 16 17 18 19 20 21

000
FTUS43 KOAX 300153 AAA
TAFCDR
TAF AMD
KCDR 300153Z 3002/3024 12012KT P6SM VCTS SCT050CB BKN100
      TEMPO 3002/3004 32025G35KT 2SM TSRA BKN050CB
     FM300400 16006KT P6SM VCSH BKN150
     FM300600 17005KT P6SM SCT250
     FM302200 17009KT P6SM SCT050=

USA.gov is the U.S. government's official web portal to all federal, state and local government web resources and services.